createdAt,value
2019-05-29T00:01:14.162Z,6.10
2019-05-29T00:06:14.565Z,5.33
2019-05-29T00:11:18.992Z,6.40
2019-05-29T00:16:25.131Z,6.47
2019-05-29T00:21:29.481Z,6.33
2019-05-29T00:26:33.837Z,6.07
2019-05-29T00:31:38.259Z,6.47
2019-05-29T00:36:42.678Z,6.40
2019-05-29T00:41:47.081Z,5.33
2019-05-29T00:46:51.706Z,4.23
2019-05-29T00:51:56.246Z,4.70
2019-05-29T00:57:00.590Z,3.60
2019-05-29T01:02:05.016Z,4.27
2019-05-29T01:07:10.212Z,3.00
2019-05-29T01:12:14.832Z,3.00
2019-05-29T01:17:19.802Z,2.70
2019-05-29T01:22:24.356Z,2.70
2019-05-29T01:27:28.663Z,2.43
2019-05-29T01:32:33.138Z,3.03
2019-05-29T01:37:37.431Z,2.90
2019-05-29T01:42:41.785Z,3.20
2019-05-29T01:47:46.145Z,2.73
2019-05-29T01:52:51.585Z,2.93
2019-05-29T01:57:55.988Z,2.63
2019-05-29T02:03:00.342Z,3.33
2019-05-29T02:08:04.851Z,3.60
2019-05-29T02:13:09.339Z,3.30
2019-05-29T02:18:13.679Z,3.23
2019-05-29T02:23:18.013Z,3.63
2019-05-29T02:28:22.693Z,2.80
2019-05-29T02:33:28.330Z,3.00
2019-05-29T02:38:32.810Z,3.07
2019-05-29T02:43:37.185Z,2.60
2019-05-29T02:48:41.553Z,2.73
2019-05-29T02:53:46.012Z,2.90
2019-05-29T02:58:50.387Z,2.30
2019-05-29T03:03:54.761Z,2.20
2019-05-29T03:08:59.490Z,2.03
2019-05-29T03:14:04.153Z,2.20
2019-05-29T03:19:08.472Z,2.03
2019-05-29T03:24:14.876Z,2.37
2019-05-29T03:29:19.280Z,2.35
2019-05-29T03:34:23.626Z,2.30
2019-05-29T03:39:28.143Z,2.20
2019-05-29T03:44:33.265Z,2.00
2019-05-29T03:49:38.645Z,2.27
2019-05-29T03:54:43.019Z,2.53
2019-05-29T03:59:47.407Z,2.70
2019-05-29T04:04:51.811Z,2.77
2019-05-29T04:09:56.154Z,3.00
2019-05-29T04:15:00.552Z,2.97
2019-05-29T04:20:06.722Z,2.77
2019-05-29T04:25:12.184Z,3.20
2019-05-29T04:30:16.555Z,2.87
2019-05-29T04:35:20.904Z,2.63
2019-05-29T04:40:25.303Z,2.67
2019-05-29T04:45:30.861Z,2.60
2019-05-29T04:50:36.489Z,6.40
2019-05-29T04:55:41.400Z,2.40
2019-05-29T05:00:58.558Z,2.00
2019-05-29T05:05:51.913Z,2.37
2019-05-29T05:10:56.271Z,2.43
2019-05-29T05:16:01.700Z,2.70
2019-05-29T05:21:06.145Z,2.67
2019-05-29T05:26:10.570Z,2.43
2019-05-29T05:31:14.941Z,2.87
2019-05-29T05:36:19.427Z,2.30
2019-05-29T05:41:23.771Z,2.40
2019-05-29T05:46:28.143Z,2.47
2019-05-29T05:51:33.446Z,2.30
2019-05-29T05:56:38.254Z,2.60
2019-05-29T06:01:42.604Z,2.30
2019-05-29T06:06:46.976Z,2.57
2019-05-29T06:11:51.469Z,2.30
2019-05-29T06:16:55.879Z,2.33
2019-05-29T06:22:00.297Z,2.00
2019-05-29T06:27:04.625Z,2.10
2019-05-29T06:32:09.006Z,2.00
2019-05-29T06:37:13.404Z,2.00
2019-05-29T06:42:17.868Z,1.87
2019-05-29T06:47:22.249Z,2.20
2019-05-29T06:52:26.659Z,2.27
2019-05-29T06:57:31.076Z,1.90
2019-05-29T07:02:36.363Z,1.70
2019-05-29T07:07:42.347Z,2.00
2019-05-29T07:12:47.270Z,1.87
2019-05-29T07:17:51.629Z,2.03
2019-05-29T07:22:56.239Z,1.90
2019-05-29T07:28:00.607Z,1.80
2019-05-29T07:33:06.187Z,2.10
2019-05-29T07:38:10.573Z,2.10
2019-05-29T07:43:15.226Z,1.97
2019-05-29T07:48:19.598Z,2.00
2019-05-29T07:53:23.979Z,1.80
2019-05-29T07:58:31.027Z,1.60
2019-05-29T08:03:35.411Z,1.90
2019-05-29T08:08:39.765Z,2.00
2019-05-29T08:13:44.150Z,1.90
2019-05-29T08:18:50.539Z,2.00
2019-05-29T08:23:54.603Z,1.97
2019-05-29T08:28:58.949Z,2.17
2019-05-29T08:34:03.408Z,1.87
2019-05-29T08:39:07.950Z,2.03
2019-05-29T08:44:12.328Z,2.10
2019-05-29T08:49:16.847Z,2.00
2019-05-29T08:54:24.175Z,1.80
2019-05-29T08:59:27.298Z,1.77
2019-05-29T09:04:31.676Z,2.23
2019-05-29T09:09:36.054Z,2.07
2019-05-29T09:14:40.561Z,2.57
2019-05-29T09:19:44.927Z,2.00
2019-05-29T09:24:49.335Z,1.70
2019-05-29T09:29:53.715Z,1.70
2019-05-29T09:34:58.137Z,1.90
2019-05-29T09:40:02.469Z,1.60
2019-05-29T09:45:06.970Z,1.60
2019-05-29T09:50:11.585Z,1.50
2019-05-29T09:55:16.576Z,1.50
2019-05-29T10:00:20.993Z,1.87
2019-05-29T10:05:25.382Z,1.83
2019-05-29T10:10:29.724Z,1.73
2019-05-29T10:15:34.233Z,1.80
2019-05-29T10:20:38.609Z,1.70
2019-05-29T10:25:42.960Z,1.80
2019-05-29T10:30:48.258Z,1.50
2019-05-29T10:35:55.293Z,1.57
2019-05-29T10:41:06.330Z,1.50
2019-05-29T10:46:05.351Z,1.70
2019-05-29T10:51:09.747Z,1.77
2019-05-29T10:56:14.123Z,1.80
2019-05-29T11:01:18.609Z,1.50
2019-05-29T11:06:24.078Z,1.83
2019-05-29T11:11:28.454Z,1.63
2019-05-29T11:16:32.817Z,1.57
2019-05-29T11:21:37.182Z,1.50
2019-05-29T11:26:41.555Z,1.40
2019-05-29T11:31:46.135Z,1.60
2019-05-29T11:36:50.547Z,1.60
2019-05-29T11:41:54.911Z,1.53
2019-05-29T11:47:00.349Z,1.70
2019-05-29T11:52:21.467Z,1.70
2019-05-29T11:57:11.229Z,1.30
2019-05-29T12:02:16.376Z,1.30
2019-05-29T12:07:20.756Z,1.37
2019-05-29T12:12:25.170Z,1.20
2019-05-29T12:17:29.867Z,1.10
2019-05-29T12:22:34.405Z,1.17
2019-05-29T12:27:39.788Z,1.57
2019-05-29T12:32:44.172Z,1.20
2019-05-29T12:37:48.645Z,1.40
2019-05-29T12:42:53.590Z,1.30
2019-05-29T12:47:58.272Z,1.10
2019-05-29T12:53:07.131Z,1.13
2019-05-29T12:58:12.855Z,0.90
2019-05-29T13:03:38.874Z,1.40
2019-05-29T13:08:43.515Z,1.20
2019-05-29T13:13:56.199Z,1.43
2019-05-29T13:19:01.100Z,1.17
2019-05-29T13:24:11.704Z,1.00
2019-05-29T13:29:16.570Z,1.13
2019-05-29T13:34:22.488Z,1.20
2019-05-29T13:39:29.761Z,1.20
2019-05-29T13:44:35.505Z,1.10
2019-05-29T13:49:39.840Z,1.30
2019-05-29T13:54:44.219Z,1.17
2019-05-29T13:59:48.748Z,1.20
2019-05-29T14:04:53.108Z,1.33
2019-05-29T14:09:58.698Z,1.10
2019-05-29T14:15:04.531Z,1.07
2019-05-29T14:20:13.031Z,1.10
2019-05-29T14:25:18.067Z,1.20
2019-05-29T14:30:22.659Z,1.13
2019-05-29T14:35:27.164Z,1.00
2019-05-29T14:40:31.498Z,1.10
2019-05-29T14:45:35.934Z,1.10
2019-05-29T14:50:40.391Z,1.27
2019-05-29T14:55:45.216Z,1.33
2019-05-29T15:00:50.006Z,1.13
2019-05-29T15:05:54.477Z,1.20
2019-05-29T15:10:58.877Z,0.90
2019-05-29T15:16:04.505Z,1.20
2019-05-29T15:21:09.138Z,0.90
2019-05-29T15:26:13.766Z,1.10
2019-05-29T15:31:18.201Z,1.37
2019-05-29T15:36:22.590Z,1.47
2019-05-29T15:41:28.094Z,1.20
2019-05-29T15:46:32.515Z,0.90
2019-05-29T15:51:36.886Z,0.90
2019-05-29T15:56:49.912Z,1.13
2019-05-29T16:01:53.208Z,1.20
2019-05-29T16:06:57.579Z,1.20
2019-05-29T16:12:01.962Z,1.00
2019-05-29T16:17:06.339Z,1.00
2019-05-29T16:22:10.706Z,1.00
2019-05-29T16:27:16.069Z,1.10
2019-05-29T16:32:21.971Z,0.90
2019-05-29T16:37:26.484Z,1.30
2019-05-29T16:42:30.846Z,1.20
2019-05-29T16:47:35.328Z,1.07
2019-05-29T16:52:39.721Z,1.03
2019-05-29T16:57:44.083Z,1.00
2019-05-29T17:02:48.531Z,1.20
2019-05-29T17:07:52.982Z,1.30
2019-05-29T17:12:57.710Z,0.80
2019-05-29T17:18:03.945Z,0.93
2019-05-29T17:23:08.573Z,1.20
2019-05-29T17:28:13.114Z,1.20
2019-05-29T17:33:18.970Z,1.10
2019-05-29T17:38:25.460Z,1.17
2019-05-29T17:43:30.608Z,1.10
2019-05-29T17:48:38.914Z,0.97
2019-05-29T17:53:46.329Z,1.10
2019-05-29T17:58:50.984Z,1.20
2019-05-29T18:03:56.949Z,1.23
2019-05-29T18:09:05.714Z,1.03
2019-05-29T18:14:19.440Z,1.03
2019-05-29T18:19:24.113Z,1.20
2019-05-29T18:24:28.810Z,1.10
2019-05-29T18:29:34.654Z,1.27
2019-05-29T18:34:44.438Z,1.23
2019-05-29T18:39:50.826Z,1.20
2019-05-29T18:44:59.906Z,1.53
2019-05-29T18:50:06.839Z,1.10
2019-05-29T18:55:13.417Z,1.20
2019-05-29T19:00:18.537Z,1.40
2019-05-29T19:05:23.615Z,1.37
2019-05-29T19:10:28.170Z,1.40
2019-05-29T19:15:32.522Z,1.40
2019-05-29T19:20:36.902Z,2.60
2019-05-29T19:25:41.384Z,1.60
2019-05-29T19:30:45.790Z,2.00
2019-05-29T19:35:50.185Z,2.30
2019-05-29T19:40:54.545Z,2.70
2019-05-29T19:45:58.928Z,3.10
2019-05-29T19:51:03.340Z,3.17
2019-05-29T19:56:07.706Z,3.40
2019-05-29T20:01:12.154Z,3.50
2019-05-29T20:06:16.491Z,3.37
2019-05-29T20:11:20.874Z,4.00
2019-05-29T20:16:25.294Z,3.27
2019-05-29T20:21:30.631Z,3.50
2019-05-29T20:26:35.271Z,4.33
2019-05-29T20:31:39.781Z,3.10
2019-05-29T20:36:44.150Z,3.73
2019-05-29T20:41:48.575Z,3.37
2019-05-29T20:46:52.952Z,3.17
2019-05-29T20:51:57.413Z,3.33
2019-05-29T20:57:03.645Z,3.40
2019-05-29T21:02:09.688Z,2.97
2019-05-29T21:07:15.244Z,3.17
2019-05-29T21:12:19.715Z,2.80
2019-05-29T21:17:24.087Z,3.30
2019-05-29T21:22:28.431Z,3.20
2019-05-29T21:27:32.802Z,3.30
2019-05-29T21:32:37.862Z,2.93
2019-05-29T21:37:42.557Z,2.57
2019-05-29T21:42:47.108Z,2.80
2019-05-29T21:47:51.474Z,2.40
2019-05-29T21:52:55.885Z,2.53
2019-05-29T21:58:00.275Z,2.50
2019-05-29T22:03:05.387Z,2.30
2019-05-29T22:08:09.778Z,2.20
2019-05-29T22:13:14.173Z,2.23
2019-05-29T22:18:18.502Z,2.40
2019-05-29T22:23:22.853Z,2.60
2019-05-29T22:28:27.245Z,2.33
2019-05-29T22:33:31.610Z,2.77
2019-05-29T22:38:35.959Z,2.60
2019-05-29T22:43:40.400Z,2.43
2019-05-29T22:48:44.747Z,2.20
2019-05-29T22:53:49.120Z,2.60
2019-05-29T22:58:54.025Z,2.50
2019-05-29T23:03:58.501Z,2.27
2019-05-29T23:09:02.879Z,2.53
2019-05-29T23:14:08.380Z,2.20
2019-05-29T23:19:12.736Z,2.53
2019-05-29T23:24:17.120Z,2.40
2019-05-29T23:29:21.475Z,2.60
2019-05-29T23:34:27.064Z,2.83
2019-05-29T23:39:31.505Z,3.27
2019-05-29T23:44:35.896Z,3.43
2019-05-29T23:49:40.390Z,3.60
2019-05-29T23:54:44.792Z,3.50
